createdAt,value
2022-12-31T00:01:48.145Z,6.72
2022-12-31T00:04:15.125Z,6.95
2022-12-31T00:06:42.658Z,6.53
2022-12-31T00:09:14.270Z,5.80
2022-12-31T00:11:41.193Z,6.93
2022-12-31T00:14:08.319Z,7.40
2022-12-31T00:16:44.705Z,7.07
2022-12-31T00:19:20.478Z,7.25
2022-12-31T00:21:50.943Z,5.85
2022-12-31T00:24:24.313Z,5.43
2022-12-31T00:26:53.848Z,4.63
2022-12-31T00:29:20.856Z,5.55
2022-12-31T00:31:54.506Z,4.90
2022-12-31T00:34:23.322Z,6.70
2022-12-31T00:36:50.302Z,5.97
2022-12-31T00:39:20.524Z,5.15
2022-12-31T00:41:49.207Z,4.85
2022-12-31T00:44:20.045Z,4.82
2022-12-31T00:46:47.070Z,4.63
2022-12-31T00:49:14.314Z,4.70
2022-12-31T00:51:41.429Z,5.40
2022-12-31T00:56:52.073Z,6.13
2022-12-31T00:59:21.911Z,5.18
2022-12-31T01:01:52.533Z,4.18
2022-12-31T01:04:21.026Z,5.28
2022-12-31T01:06:48.380Z,4.43
2022-12-31T01:09:18.582Z,6.05
2022-12-31T01:11:53.380Z,4.40
2022-12-31T01:14:22.179Z,5.68
2022-12-31T01:16:58.533Z,4.53
2022-12-31T01:19:35.373Z,5.18
2022-12-31T01:22:05.112Z,4.93
2022-12-31T01:24:32.125Z,5.15
2022-12-31T01:26:59.113Z,4.70
2022-12-31T01:29:29.850Z,4.38
2022-12-31T01:31:59.105Z,4.32
2022-12-31T01:34:26.111Z,4.53
2022-12-31T01:36:53.177Z,4.45
2022-12-31T01:39:20.166Z,4.45
2022-12-31T01:41:59.056Z,4.60
2022-12-31T01:44:25.987Z,3.90
2022-12-31T01:47:06.918Z,4.35
2022-12-31T01:49:54.590Z,4.43
2022-12-31T01:52:29.797Z,5.13
2022-12-31T01:55:06.141Z,5.13
2022-12-31T01:57:35.485Z,4.78
2022-12-31T02:00:06.656Z,4.85
2022-12-31T02:02:36.052Z,4.25
2022-12-31T02:05:12.534Z,3.78
2022-12-31T02:07:41.683Z,4.60
2022-12-31T02:10:10.630Z,5.18
2022-12-31T02:12:39.529Z,4.32
2022-12-31T02:15:55.594Z,4.10
2022-12-31T02:18:40.633Z,4.20
2022-12-31T02:21:49.228Z,3.85
2022-12-31T02:24:46.996Z,3.45
2022-12-31T02:27:23.972Z,4.20
2022-12-31T02:30:22.608Z,3.40
2022-12-31T02:33:06.164Z,3.72
2022-12-31T02:36:06.150Z,3.85
2022-12-31T02:38:36.589Z,4.25
2022-12-31T02:41:06.711Z,4.78
2022-12-31T02:43:36.028Z,3.05
2022-12-31T02:46:32.356Z,3.35
2022-12-31T02:49:29.054Z,4.15
2022-12-31T02:52:15.256Z,4.13
2022-12-31T02:55:06.296Z,3.20
2022-12-31T02:58:10.228Z,3.22
2022-12-31T03:01:06.956Z,3.10
2022-12-31T03:03:41.021Z,3.10
2022-12-31T03:06:13.872Z,2.95
2022-12-31T03:09:03.722Z,3.60
2022-12-31T03:11:52.050Z,3.42
2022-12-31T03:14:22.521Z,3.08
2022-12-31T03:16:51.150Z,2.65
2022-12-31T03:19:36.694Z,3.47
2022-12-31T03:22:25.113Z,3.35
2022-12-31T03:25:11.859Z,3.17
2022-12-31T03:27:40.396Z,3.67
2022-12-31T03:30:12.850Z,3.33
2022-12-31T03:32:53.337Z,3.65
2022-12-31T03:35:24.641Z,3.33
2022-12-31T03:37:56.660Z,3.35
2022-12-31T03:40:30.143Z,3.05
2022-12-31T03:43:00.196Z,3.38
2022-12-31T03:45:37.110Z,3.78
2022-12-31T03:48:10.652Z,3.08
2022-12-31T03:50:41.939Z,3.60
2022-12-31T03:53:44.772Z,3.70
2022-12-31T03:56:15.622Z,3.45
2022-12-31T03:58:42.952Z,4.10
2022-12-31T04:01:13.361Z,3.47
2022-12-31T04:03:42.302Z,3.28
2022-12-31T04:06:12.486Z,3.38
2022-12-31T04:09:00.791Z,3.53
2022-12-31T04:11:30.567Z,3.00
2022-12-31T04:14:00.281Z,4.18
2022-12-31T04:16:31.631Z,4.15
2022-12-31T04:19:01.804Z,4.20
2022-12-31T04:21:35.465Z,3.90
2022-12-31T04:24:05.180Z,4.03
2022-12-31T04:26:36.591Z,2.90
2022-12-31T04:29:07.737Z,3.30
2022-12-31T04:31:40.231Z,3.95
2022-12-31T04:34:13.487Z,3.88
2022-12-31T04:36:50.231Z,3.55
2022-12-31T04:39:17.605Z,3.25
2022-12-31T04:41:44.922Z,4.13
2022-12-31T04:44:13.436Z,3.28
2022-12-31T04:46:44.654Z,3.35
2022-12-31T04:49:14.851Z,4.13
2022-12-31T04:51:42.073Z,3.67
2022-12-31T04:54:11.165Z,3.50
2022-12-31T04:56:38.297Z,3.55
2022-12-31T04:59:09.139Z,4.20
2022-12-31T05:01:41.987Z,3.63
2022-12-31T05:04:09.089Z,3.72
2022-12-31T05:06:37.284Z,4.00
2022-12-31T05:09:04.612Z,3.45
2022-12-31T05:11:31.754Z,3.40
2022-12-31T05:13:58.865Z,4.38
2022-12-31T05:16:26.079Z,4.05
2022-12-31T05:18:55.065Z,3.58
2022-12-31T05:21:22.512Z,4.95
2022-12-31T05:23:49.659Z,4.65
2022-12-31T05:26:16.953Z,4.28
2022-12-31T05:28:43.984Z,3.95
2022-12-31T05:31:10.959Z,4.93
2022-12-31T05:33:38.147Z,4.38
2022-12-31T05:36:05.513Z,4.03
2022-12-31T05:38:32.454Z,4.03
2022-12-31T05:41:04.054Z,4.20
2022-12-31T05:43:32.157Z,4.28
2022-12-31T05:46:04.153Z,4.45
2022-12-31T05:48:31.576Z,3.63
2022-12-31T05:50:58.910Z,3.92
2022-12-31T05:53:25.949Z,4.13
2022-12-31T05:55:53.095Z,4.20
2022-12-31T05:58:20.113Z,3.33
2022-12-31T06:00:47.383Z,3.97
2022-12-31T06:03:15.087Z,4.65
2022-12-31T06:05:43.122Z,3.78
2022-12-31T06:08:13.961Z,3.65
2022-12-31T06:10:43.966Z,3.67
2022-12-31T06:13:12.331Z,4.50
2022-12-31T06:15:40.384Z,4.07
2022-12-31T06:18:07.803Z,4.07
2022-12-31T06:20:38.644Z,4.03
2022-12-31T06:23:06.197Z,4.10
2022-12-31T06:25:38.403Z,3.78
2022-12-31T06:28:05.889Z,4.05
2022-12-31T06:30:33.844Z,3.95
2022-12-31T06:33:00.830Z,4.93
2022-12-31T06:35:27.834Z,5.15
2022-12-31T06:37:54.904Z,4.63
2022-12-31T06:40:22.503Z,4.75
2022-12-31T06:42:54.618Z,3.95
2022-12-31T06:45:24.967Z,4.68
2022-12-31T06:47:51.946Z,4.45
2022-12-31T06:50:18.964Z,5.30
2022-12-31T06:52:46.100Z,4.20
2022-12-31T06:55:17.020Z,4.28
2022-12-31T06:57:44.272Z,5.60
2022-12-31T07:00:17.018Z,5.03
2022-12-31T07:03:25.472Z,4.95
2022-12-31T07:06:19.987Z,4.50
2022-12-31T07:09:08.526Z,4.18
2022-12-31T07:11:47.055Z,5.03
2022-12-31T07:14:37.675Z,5.05
2022-12-31T07:17:26.302Z,5.18
2022-12-31T07:20:02.096Z,4.93
2022-12-31T07:22:37.613Z,3.63
2022-12-31T07:25:30.977Z,4.57
2022-12-31T07:28:07.061Z,4.07
2022-12-31T07:30:41.557Z,4.88
2022-12-31T07:33:38.808Z,4.15
2022-12-31T07:36:48.871Z,4.72
2022-12-31T07:39:46.933Z,4.45
2022-12-31T07:42:23.740Z,3.65
2022-12-31T07:45:19.629Z,3.50
2022-12-31T07:47:57.467Z,3.97
2022-12-31T07:50:28.716Z,4.72
2022-12-31T07:52:59.486Z,5.20
2022-12-31T07:55:27.248Z,4.60
2022-12-31T07:58:35.099Z,6.05
2022-12-31T08:01:04.000Z,3.55
2022-12-31T08:03:31.304Z,4.93
2022-12-31T08:06:17.271Z,4.05
2022-12-31T08:09:06.036Z,4.82
2022-12-31T08:11:44.103Z,5.30
2022-12-31T08:14:14.194Z,5.45
2022-12-31T08:16:44.772Z,5.00
2022-12-31T08:19:43.125Z,5.30
2022-12-31T08:26:27.092Z,5.05
2022-12-31T08:29:45.273Z,3.65
2022-12-31T08:32:34.380Z,4.22
2022-12-31T08:35:29.967Z,5.32
2022-12-31T08:38:05.272Z,6.05
2022-12-31T08:40:48.076Z,4.75
2022-12-31T08:43:53.321Z,3.92
2022-12-31T08:46:28.742Z,5.25
2022-12-31T08:49:33.212Z,5.40
2022-12-31T08:55:57.535Z,7.20
2022-12-31T08:58:40.124Z,7.05
2022-12-31T09:01:47.044Z,7.90
2022-12-31T09:04:42.438Z,6.85
2022-12-31T09:07:32.621Z,8.43
2022-12-31T09:10:17.266Z,8.77
2022-12-31T09:13:32.976Z,8.35
2022-12-31T09:16:30.458Z,6.55
2022-12-31T09:19:00.120Z,6.15
2022-12-31T09:21:27.360Z,7.85
2022-12-31T09:23:54.630Z,7.18
2022-12-31T09:26:30.505Z,5.60
2022-12-31T09:29:03.367Z,7.20
2022-12-31T09:31:42.967Z,5.67
2022-12-31T09:34:18.362Z,5.95
2022-12-31T09:36:50.772Z,5.75
2022-12-31T09:39:36.499Z,5.82
2022-12-31T09:46:28.012Z,5.05
